PAMD METAR and TAF weather

Enter ICAO airport designator
Station Type Date Time Source
PAMD METAR 2022/11/30 16:59 UTC NOAA

PAMD 301659Z AUTO 28007KT 10SM OVC031 02/M04 A3032 RMK AO2 FZRANO PNO $


Station Type Date Time Source
PAMD Decoded METAR 2022/11/30 16:59 UTC NOAA

Middleton Island, Middleton Island Airport, AK, United States (PAMD) 59-26N 146-18W 14M
Nov 30, 2022 - 11:59 AM EST / 2022.11.30 1659 UTC
Wind: from the W (280 degrees) at 8 MPH (7 KT):0
Visibility: 10 mile(s):0
Sky conditions: overcast
Temperature: 35 F (2 C)
Windchill: 28 F (-2 C):1
Dew Point: 24 F (-4 C)
Relative Humidity: 64%
Pressure (altimeter): 30.32 in. Hg (1026 hPa)
ob: PAMD 301659Z AUTO 28007KT 10SM OVC031 02/M04 A3032 RMK AO2 FZRANO PNO
cycle: 17

Station Type Date Time Source
PAMD TAF UTC NOAA

Error!

Example: see airport list